sensor_id;sensor_type;location;lat;lon;timestamp;P1;durP1;ratioP1;P2;durP2;ratioP2
7807;SDS011;3949;49.254;8.894;2024-01-16T00:01:09;5.57;;;4.37;;
7807;SDS011;3949;49.254;8.894;2024-01-16T00:03:37;7.63;;;4.50;;
7807;SDS011;3949;49.254;8.894;2024-01-16T00:06:03;6.07;;;3.80;;
7807;SDS011;3949;49.254;8.894;2024-01-16T00:08:29;5.70;;;4.50;;
7807;SDS011;3949;49.254;8.894;2024-01-16T00:10:55;7.00;;;4.07;;
7807;SDS011;3949;49.254;8.894;2024-01-16T00:13:21;7.23;;;4.77;;
7807;SDS011;3949;49.254;8.894;2024-01-16T00:15:47;8.70;;;5.93;;
7807;SDS011;3949;49.254;8.894;2024-01-16T00:18:14;7.43;;;4.73;;
7807;SDS011;3949;49.254;8.894;2024-01-16T00:20:43;5.03;;;4.00;;
7807;SDS011;3949;49.254;8.894;2024-01-16T00:23:09;8.53;;;4.57;;
7807;SDS011;3949;49.254;8.894;2024-01-16T00:25:36;8.10;;;4.43;;
7807;SDS011;3949;49.254;8.894;2024-01-16T00:28:02;6.07;;;4.27;;
7807;SDS011;3949;49.254;8.894;2024-01-16T00:32:54;6.57;;;4.53;;
7807;SDS011;3949;49.254;8.894;2024-01-16T00:35:20;10.13;;;4.53;;
7807;SDS011;3949;49.254;8.894;2024-01-16T00:37:46;7.27;;;4.87;;
7807;SDS011;3949;49.254;8.894;2024-01-16T00:40:12;5.87;;;4.30;;
7807;SDS011;3949;49.254;8.894;2024-01-16T00:42:38;5.67;;;4.13;;
7807;SDS011;3949;49.254;8.894;2024-01-16T00:45:04;8.30;;;4.87;;
7807;SDS011;3949;49.254;8.894;2024-01-16T00:47:30;7.97;;;4.17;;
7807;SDS011;3949;49.254;8.894;2024-01-16T00:49:56;6.20;;;4.50;;
7807;SDS011;3949;49.254;8.894;2024-01-16T00:52:22;5.60;;;4.03;;
7807;SDS011;3949;49.254;8.894;2024-01-16T00:54:48;6.50;;;4.37;;
7807;SDS011;3949;49.254;8.894;2024-01-16T00:57:15;7.03;;;4.13;;
7807;SDS011;3949;49.254;8.894;2024-01-16T00:59:44;6.90;;;4.60;;
7807;SDS011;3949;49.254;8.894;2024-01-16T01:02:12;9.50;;;5.27;;
7807;SDS011;3949;49.254;8.894;2024-01-16T01:04:38;7.10;;;4.20;;
7807;SDS011;3949;49.254;8.894;2024-01-16T01:07:06;6.73;;;4.60;;
7807;SDS011;3949;49.254;8.894;2024-01-16T01:09:33;8.07;;;4.90;;
7807;SDS011;3949;49.254;8.894;2024-01-16T01:11:59;6.77;;;4.90;;
7807;SDS011;3949;49.254;8.894;2024-01-16T01:14:25;9.50;;;4.73;;
7807;SDS011;3949;49.254;8.894;2024-01-16T01:16:54;6.43;;;4.53;;
7807;SDS011;3949;49.254;8.894;2024-01-16T01:19:20;9.40;;;5.13;;
7807;SDS011;3949;49.254;8.894;2024-01-16T01:21:46;7.47;;;4.30;;
7807;SDS011;3949;49.254;8.894;2024-01-16T01:24:12;9.50;;;5.20;;
7807;SDS011;3949;49.254;8.894;2024-01-16T01:26:38;9.23;;;4.63;;
7807;SDS011;3949;49.254;8.894;2024-01-16T01:29:04;5.97;;;4.47;;
7807;SDS011;3949;49.254;8.894;2024-01-16T01:31:30;7.50;;;4.90;;
7807;SDS011;3949;49.254;8.894;2024-01-16T01:33:55;5.90;;;4.57;;
7807;SDS011;3949;49.254;8.894;2024-01-16T01:36:21;7.53;;;5.00;;
7807;SDS011;3949;49.254;8.894;2024-01-16T01:38:47;5.57;;;4.03;;
7807;SDS011;3949;49.254;8.894;2024-01-16T01:41:13;6.57;;;4.13;;
7807;SDS011;3949;49.254;8.894;2024-01-16T01:43:39;7.37;;;4.30;;
7807;SDS011;3949;49.254;8.894;2024-01-16T01:46:08;7.40;;;4.67;;
7807;SDS011;3949;49.254;8.894;2024-01-16T01:48:35;7.73;;;4.60;;
7807;SDS011;3949;49.254;8.894;2024-01-16T01:51:01;8.43;;;4.97;;
7807;SDS011;3949;49.254;8.894;2024-01-16T01:53:28;6.87;;;4.83;;
7807;SDS011;3949;49.254;8.894;2024-01-16T01:55:54;10.60;;;4.93;;
7807;SDS011;3949;49.254;8.894;2024-01-16T01:58:21;7.80;;;4.83;;
7807;SDS011;3949;49.254;8.894;2024-01-16T02:00:46;7.13;;;4.70;;
7807;SDS011;3949;49.254;8.894;2024-01-16T02:03:12;5.93;;;4.57;;
7807;SDS011;3949;49.254;8.894;2024-01-16T02:05:39;6.37;;;4.90;;
7807;SDS011;3949;49.254;8.894;2024-01-16T02:08:05;6.57;;;4.50;;
7807;SDS011;3949;49.254;8.894;2024-01-16T02:10:31;6.57;;;4.57;;
7807;SDS011;3949;49.254;8.894;2024-01-16T02:12:57;6.33;;;4.87;;
7807;SDS011;3949;49.254;8.894;2024-01-16T02:15:23;7.77;;;4.60;;
7807;SDS011;3949;49.254;8.894;2024-01-16T02:17:49;5.97;;;4.60;;
7807;SDS011;3949;49.254;8.894;2024-01-16T02:20:16;6.97;;;4.90;;
7807;SDS011;3949;49.254;8.894;2024-01-16T02:22:44;7.80;;;4.87;;
7807;SDS011;3949;49.254;8.894;2024-01-16T02:25:11;8.80;;;5.00;;
7807;SDS011;3949;49.254;8.894;2024-01-16T02:27:37;6.87;;;4.57;;
7807;SDS011;3949;49.254;8.894;2024-01-16T02:30:03;5.60;;;4.33;;
7807;SDS011;3949;49.254;8.894;2024-01-16T02:32:29;10.40;;;5.60;;
7807;SDS011;3949;49.254;8.894;2024-01-16T02:34:55;7.43;;;4.80;;
7807;SDS011;3949;49.254;8.894;2024-01-16T02:37:21;7.80;;;5.30;;
7807;SDS011;3949;49.254;8.894;2024-01-16T02:39:48;6.83;;;4.63;;
7807;SDS011;3949;49.254;8.894;2024-01-16T02:42:14;8.17;;;5.10;;
7807;SDS011;3949;49.254;8.894;2024-01-16T02:44:40;9.37;;;4.97;;
7807;SDS011;3949;49.254;8.894;2024-01-16T02:47:06;6.67;;;4.67;;
7807;SDS011;3949;49.254;8.894;2024-01-16T02:49:32;8.17;;;4.77;;
7807;SDS011;3949;49.254;8.894;2024-01-16T02:51:58;7.77;;;4.70;;
7807;SDS011;3949;49.254;8.894;2024-01-16T02:54:24;7.40;;;4.83;;
7807;SDS011;3949;49.254;8.894;2024-01-16T02:56:50;6.07;;;4.70;;
7807;SDS011;3949;49.254;8.894;2024-01-16T02:59:16;7.00;;;4.73;;
7807;SDS011;3949;49.254;8.894;2024-01-16T03:01:42;5.90;;;4.30;;
7807;SDS011;3949;49.254;8.894;2024-01-16T03:04:08;6.03;;;4.50;;
7807;SDS011;3949;49.254;8.894;2024-01-16T03:06:34;8.80;;;4.93;;
7807;SDS011;3949;49.254;8.894;2024-01-16T03:09:00;7.27;;;4.70;;
7807;SDS011;3949;49.254;8.894;2024-01-16T03:11:26;6.60;;;5.23;;
7807;SDS011;3949;49.254;8.894;2024-01-16T03:13:52;9.77;;;6.57;;
7807;SDS011;3949;49.254;8.894;2024-01-16T03:16:18;9.77;;;6.57;;
7807;SDS011;3949;49.254;8.894;2024-01-16T03:18:44;9.13;;;6.77;;
7807;SDS011;3949;49.254;8.894;2024-01-16T03:21:13;12.70;;;9.07;;
7807;SDS011;3949;49.254;8.894;2024-01-16T03:23:40;12.60;;;8.17;;
7807;SDS011;3949;49.254;8.894;2024-01-16T03:26:06;10.13;;;6.13;;
7807;SDS011;3949;49.254;8.894;2024-01-16T03:28:32;9.23;;;6.07;;
7807;SDS011;3949;49.254;8.894;2024-01-16T03:30:58;9.60;;;6.13;;
7807;SDS011;3949;49.254;8.894;2024-01-16T03:33:23;10.47;;;5.83;;
7807;SDS011;3949;49.254;8.894;2024-01-16T03:35:49;9.40;;;6.00;;
7807;SDS011;3949;49.254;8.894;2024-01-16T03:38:15;6.77;;;5.50;;
7807;SDS011;3949;49.254;8.894;2024-01-16T03:40:41;7.60;;;5.50;;
7807;SDS011;3949;49.254;8.894;2024-01-16T03:43:07;8.60;;;6.37;;
7807;SDS011;3949;49.254;8.894;2024-01-16T03:45:33;9.47;;;6.40;;
7807;SDS011;3949;49.254;8.894;2024-01-16T03:47:59;9.13;;;6.17;;
7807;SDS011;3949;49.254;8.894;2024-01-16T03:50:25;9.57;;;5.80;;
7807;SDS011;3949;49.254;8.894;2024-01-16T03:52:51;7.67;;;5.63;;
7807;SDS011;3949;49.254;8.894;2024-01-16T03:55:17;8.00;;;5.10;;
7807;SDS011;3949;49.254;8.894;2024-01-16T03:57:43;6.60;;;4.67;;
7807;SDS011;3949;49.254;8.894;2024-01-16T04:00:11;7.70;;;4.80;;
7807;SDS011;3949;49.254;8.894;2024-01-16T04:02:40;7.47;;;5.43;;
7807;SDS011;3949;49.254;8.894;2024-01-16T04:05:06;7.43;;;4.40;;
7807;SDS011;3949;49.254;8.894;2024-01-16T04:07:32;9.37;;;5.80;;
7807;SDS011;3949;49.254;8.894;2024-01-16T04:09:59;14.53;;;6.87;;
7807;SDS011;3949;49.254;8.894;2024-01-16T04:12:26;7.73;;;5.30;;
7807;SDS011;3949;49.254;8.894;2024-01-16T04:14:52;8.50;;;6.13;;
7807;SDS011;3949;49.254;8.894;2024-01-16T04:17:18;16.10;;;9.37;;
7807;SDS011;3949;49.254;8.894;2024-01-16T04:19:45;12.17;;;7.23;;
7807;SDS011;3949;49.254;8.894;2024-01-16T04:22:11;7.03;;;5.07;;
7807;SDS011;3949;49.254;8.894;2024-01-16T04:24:37;7.40;;;5.10;;
7807;SDS011;3949;49.254;8.894;2024-01-16T04:27:03;8.10;;;4.90;;
7807;SDS011;3949;49.254;8.894;2024-01-16T04:29:29;6.53;;;4.37;;
7807;SDS011;3949;49.254;8.894;2024-01-16T04:31:55;6.60;;;4.60;;
7807;SDS011;3949;49.254;8.894;2024-01-16T04:34:21;8.67;;;5.00;;
7807;SDS011;3949;49.254;8.894;2024-01-16T04:36:47;6.47;;;5.17;;
7807;SDS011;3949;49.254;8.894;2024-01-16T04:39:13;5.93;;;4.60;;
7807;SDS011;3949;49.254;8.894;2024-01-16T04:41:39;6.23;;;4.50;;
7807;SDS011;3949;49.254;8.894;2024-01-16T04:44:05;6.97;;;4.50;;
7807;SDS011;3949;49.254;8.894;2024-01-16T04:46:31;8.27;;;4.50;;
7807;SDS011;3949;49.254;8.894;2024-01-16T04:48:57;5.83;;;4.47;;
7807;SDS011;3949;49.254;8.894;2024-01-16T04:51:26;6.57;;;4.70;;
7807;SDS011;3949;49.254;8.894;2024-01-16T04:53:52;6.47;;;4.37;;
7807;SDS011;3949;49.254;8.894;2024-01-16T04:56:18;6.90;;;4.13;;
7807;SDS011;3949;49.254;8.894;2024-01-16T04:58:44;8.97;;;5.27;;
7807;SDS011;3949;49.254;8.894;2024-01-16T05:01:10;6.10;;;4.30;;
7807;SDS011;3949;49.254;8.894;2024-01-16T05:03:36;6.47;;;4.53;;
7807;SDS011;3949;49.254;8.894;2024-01-16T05:06:02;7.27;;;4.43;;
7807;SDS011;3949;49.254;8.894;2024-01-16T05:08:28;9.00;;;4.67;;
7807;SDS011;3949;49.254;8.894;2024-01-16T05:10:55;8.33;;;4.73;;
7807;SDS011;3949;49.254;8.894;2024-01-16T05:13:21;8.03;;;4.20;;
7807;SDS011;3949;49.254;8.894;2024-01-16T05:15:47;7.43;;;4.33;;
7807;SDS011;3949;49.254;8.894;2024-01-16T05:18:13;7.20;;;4.20;;
7807;SDS011;3949;49.254;8.894;2024-01-16T05:20:39;6.60;;;4.37;;
7807;SDS011;3949;49.254;8.894;2024-01-16T05:23:05;6.90;;;4.50;;
7807;SDS011;3949;49.254;8.894;2024-01-16T05:25:31;5.83;;;4.10;;
7807;SDS011;3949;49.254;8.894;2024-01-16T05:27:57;7.20;;;4.40;;
7807;SDS011;3949;49.254;8.894;2024-01-16T05:30:23;8.23;;;3.97;;
7807;SDS011;3949;49.254;8.894;2024-01-16T05:32:49;7.10;;;4.13;;
7807;SDS011;3949;49.254;8.894;2024-01-16T05:35:17;6.37;;;4.37;;
7807;SDS011;3949;49.254;8.894;2024-01-16T05:37:43;6.17;;;4.10;;
7807;SDS011;3949;49.254;8.894;2024-01-16T05:40:09;8.73;;;4.60;;
7807;SDS011;3949;49.254;8.894;2024-01-16T05:42:35;5.53;;;3.80;;
7807;SDS011;3949;49.254;8.894;2024-01-16T05:45:01;7.43;;;4.23;;
7807;SDS011;3949;49.254;8.894;2024-01-16T05:47:27;6.03;;;3.83;;
7807;SDS011;3949;49.254;8.894;2024-01-16T05:49:55;5.57;;;3.83;;
7807;SDS011;3949;49.254;8.894;2024-01-16T05:52:21;7.30;;;4.20;;
7807;SDS011;3949;49.254;8.894;2024-01-16T05:54:48;6.23;;;3.90;;
7807;SDS011;3949;49.254;8.894;2024-01-16T05:57:13;8.13;;;4.20;;
7807;SDS011;3949;49.254;8.894;2024-01-16T05:59:39;5.73;;;4.60;;
7807;SDS011;3949;49.254;8.894;2024-01-16T06:02:06;8.90;;;4.13;;
7807;SDS011;3949;49.254;8.894;2024-01-16T06:04:32;7.70;;;4.27;;
7807;SDS011;3949;49.254;8.894;2024-01-16T06:07:01;6.23;;;4.33;;
7807;SDS011;3949;49.254;8.894;2024-01-16T06:09:31;5.87;;;3.77;;
7807;SDS011;3949;49.254;8.894;2024-01-16T06:11:57;7.77;;;4.37;;
7807;SDS011;3949;49.254;8.894;2024-01-16T06:14:23;5.90;;;4.20;;
7807;SDS011;3949;49.254;8.894;2024-01-16T06:16:49;7.73;;;4.60;;
7807;SDS011;3949;49.254;8.894;2024-01-16T06:19:16;6.63;;;4.77;;
7807;SDS011;3949;49.254;8.894;2024-01-16T06:21:42;7.87;;;4.43;;
7807;SDS011;3949;49.254;8.894;2024-01-16T06:24:08;6.13;;;4.23;;
7807;SDS011;3949;49.254;8.894;2024-01-16T06:26:36;5.67;;;3.87;;
7807;SDS011;3949;49.254;8.894;2024-01-16T06:29:02;8.33;;;4.00;;
7807;SDS011;3949;49.254;8.894;2024-01-16T06:31:28;5.47;;;4.17;;
7807;SDS011;3949;49.254;8.894;2024-01-16T06:33:54;6.63;;;3.87;;
7807;SDS011;3949;49.254;8.894;2024-01-16T06:36:20;6.03;;;4.27;;
7807;SDS011;3949;49.254;8.894;2024-01-16T06:38:46;4.80;;;4.13;;
7807;SDS011;3949;49.254;8.894;2024-01-16T06:41:12;6.17;;;4.30;;
7807;SDS011;3949;49.254;8.894;2024-01-16T06:43:38;5.87;;;4.50;;
7807;SDS011;3949;49.254;8.894;2024-01-16T06:46:04;6.37;;;4.40;;
7807;SDS011;3949;49.254;8.894;2024-01-16T06:48:30;6.20;;;4.27;;
7807;SDS011;3949;49.254;8.894;2024-01-16T06:50:56;15.03;;;6.43;;
7807;SDS011;3949;49.254;8.894;2024-01-16T06:53:22;8.10;;;5.40;;
7807;SDS011;3949;49.254;8.894;2024-01-16T06:55:48;11.57;;;6.43;;
7807;SDS011;3949;49.254;8.894;2024-01-16T06:58:14;7.90;;;5.27;;
7807;SDS011;3949;49.254;8.894;2024-01-16T07:00:40;10.27;;;5.70;;
7807;SDS011;3949;49.254;8.894;2024-01-16T07:03:06;11.77;;;7.27;;
7807;SDS011;3949;49.254;8.894;2024-01-16T07:05:32;15.13;;;7.30;;
7807;SDS011;3949;49.254;8.894;2024-01-16T07:07:58;9.93;;;6.37;;
7807;SDS011;3949;49.254;8.894;2024-01-16T07:10:25;10.63;;;6.67;;
7807;SDS011;3949;49.254;8.894;2024-01-16T07:12:51;12.90;;;7.53;;
7807;SDS011;3949;49.254;8.894;2024-01-16T07:15:17;16.80;;;7.83;;
7807;SDS011;3949;49.254;8.894;2024-01-16T07:17:43;12.47;;;6.50;;
7807;SDS011;3949;49.254;8.894;2024-01-16T07:20:09;12.23;;;6.50;;
7807;SDS011;3949;49.254;8.894;2024-01-16T07:22:36;8.33;;;5.80;;
7807;SDS011;3949;49.254;8.894;2024-01-16T07:25:04;9.10;;;5.10;;
7807;SDS011;3949;49.254;8.894;2024-01-16T07:27:30;8.27;;;5.00;;
7807;SDS011;3949;49.254;8.894;2024-01-16T07:29:56;13.17;;;6.00;;
7807;SDS011;3949;49.254;8.894;2024-01-16T07:32:22;10.40;;;6.30;;
7807;SDS011;3949;49.254;8.894;2024-01-16T07:34:48;13.23;;;7.50;;
7807;SDS011;3949;49.254;8.894;2024-01-16T07:37:16;11.20;;;7.03;;
7807;SDS011;3949;49.254;8.894;2024-01-16T07:39:42;32.73;;;14.60;;
7807;SDS011;3949;49.254;8.894;2024-01-16T07:42:08;33.30;;;17.80;;
7807;SDS011;3949;49.254;8.894;2024-01-16T07:44:35;39.37;;;20.70;;
7807;SDS011;3949;49.254;8.894;2024-01-16T07:47:01;16.33;;;12.27;;
7807;SDS011;3949;49.254;8.894;2024-01-16T07:49:27;17.17;;;12.23;;
7807;SDS011;3949;49.254;8.894;2024-01-16T07:51:53;10.23;;;7.50;;
7807;SDS011;3949;49.254;8.894;2024-01-16T07:54:19;14.97;;;10.20;;
7807;SDS011;3949;49.254;8.894;2024-01-16T07:56:45;15.40;;;11.57;;
7807;SDS011;3949;49.254;8.894;2024-01-16T07:59:11;10.53;;;8.20;;
7807;SDS011;3949;49.254;8.894;2024-01-16T08:01:37;11.87;;;7.23;;
7807;SDS011;3949;49.254;8.894;2024-01-16T08:04:03;11.20;;;8.17;;
7807;SDS011;3949;49.254;8.894;2024-01-16T08:06:29;7.50;;;5.80;;
7807;SDS011;3949;49.254;8.894;2024-01-16T08:08:55;11.13;;;6.53;;
7807;SDS011;3949;49.254;8.894;2024-01-16T08:11:21;10.47;;;6.50;;
7807;SDS011;3949;49.254;8.894;2024-01-16T08:13:47;10.27;;;6.77;;
7807;SDS011;3949;49.254;8.894;2024-01-16T08:16:13;8.03;;;5.13;;
7807;SDS011;3949;49.254;8.894;2024-01-16T08:18:39;8.80;;;5.83;;
7807;SDS011;3949;49.254;8.894;2024-01-16T08:21:05;10.90;;;5.17;;
7807;SDS011;3949;49.254;8.894;2024-01-16T08:23:32;9.03;;;6.00;;
7807;SDS011;3949;49.254;8.894;2024-01-16T08:25:58;9.17;;;5.70;;
7807;SDS011;3949;49.254;8.894;2024-01-16T08:28:24;8.17;;;5.53;;
7807;SDS011;3949;49.254;8.894;2024-01-16T08:30:51;9.50;;;6.87;;
7807;SDS011;3949;49.254;8.894;2024-01-16T08:33:17;10.00;;;6.13;;
7807;SDS011;3949;49.254;8.894;2024-01-16T08:35:42;7.57;;;5.73;;
7807;SDS011;3949;49.254;8.894;2024-01-16T08:38:09;8.53;;;5.80;;
7807;SDS011;3949;49.254;8.894;2024-01-16T08:40:35;11.13;;;7.00;;
7807;SDS011;3949;49.254;8.894;2024-01-16T08:43:01;12.30;;;7.23;;
7807;SDS011;3949;49.254;8.894;2024-01-16T08:45:28;10.50;;;6.77;;
7807;SDS011;3949;49.254;8.894;2024-01-16T08:47:54;9.70;;;6.37;;
7807;SDS011;3949;49.254;8.894;2024-01-16T08:50:20;9.77;;;6.70;;
7807;SDS011;3949;49.254;8.894;2024-01-16T08:52:46;8.87;;;6.60;;
7807;SDS011;3949;49.254;8.894;2024-01-16T08:55:12;8.07;;;6.30;;
7807;SDS011;3949;49.254;8.894;2024-01-16T08:57:39;7.17;;;5.17;;
7807;SDS011;3949;49.254;8.894;2024-01-16T09:00:05;8.57;;;5.43;;
7807;SDS011;3949;49.254;8.894;2024-01-16T09:02:32;14.13;;;8.83;;
7807;SDS011;3949;49.254;8.894;2024-01-16T09:04:58;10.97;;;6.90;;
7807;SDS011;3949;49.254;8.894;2024-01-16T09:07:24;8.43;;;6.40;;
7807;SDS011;3949;49.254;8.894;2024-01-16T09:09:50;10.30;;;6.23;;
7807;SDS011;3949;49.254;8.894;2024-01-16T09:12:16;8.50;;;5.63;;
7807;SDS011;3949;49.254;8.894;2024-01-16T09:14:42;10.17;;;6.67;;
7807;SDS011;3949;49.254;8.894;2024-01-16T09:17:08;6.73;;;5.30;;
7807;SDS011;3949;49.254;8.894;2024-01-16T09:19:34;9.70;;;5.20;;
7807;SDS011;3949;49.254;8.894;2024-01-16T09:22:00;8.83;;;5.10;;
7807;SDS011;3949;49.254;8.894;2024-01-16T09:24:28;6.10;;;4.50;;
7807;SDS011;3949;49.254;8.894;2024-01-16T09:26:54;7.60;;;5.00;;
7807;SDS011;3949;49.254;8.894;2024-01-16T09:29:20;7.37;;;4.97;;
7807;SDS011;3949;49.254;8.894;2024-01-16T09:31:47;7.40;;;5.03;;
7807;SDS011;3949;49.254;8.894;2024-01-16T09:34:13;11.27;;;5.50;;
7807;SDS011;3949;49.254;8.894;2024-01-16T09:36:39;10.03;;;6.43;;
7807;SDS011;3949;49.254;8.894;2024-01-16T09:39:06;8.60;;;6.37;;
7807;SDS011;3949;49.254;8.894;2024-01-16T09:41:33;8.67;;;6.57;;
7807;SDS011;3949;49.254;8.894;2024-01-16T09:43:59;8.97;;;6.10;;
7807;SDS011;3949;49.254;8.894;2024-01-16T09:46:25;10.60;;;7.00;;
7807;SDS011;3949;49.254;8.894;2024-01-16T09:48:54;10.03;;;6.60;;
7807;SDS011;3949;49.254;8.894;2024-01-16T09:51:20;8.37;;;5.47;;
7807;SDS011;3949;49.254;8.894;2024-01-16T09:53:46;11.50;;;6.33;;
7807;SDS011;3949;49.254;8.894;2024-01-16T09:56:15;8.47;;;5.47;;
7807;SDS011;3949;49.254;8.894;2024-01-16T09:58:42;7.80;;;5.70;;
7807;SDS011;3949;49.254;8.894;2024-01-16T10:01:10;8.37;;;5.47;;
7807;SDS011;3949;49.254;8.894;2024-01-16T10:03:38;7.00;;;5.00;;
7807;SDS011;3949;49.254;8.894;2024-01-16T10:06:04;6.00;;;4.80;;
7807;SDS011;3949;49.254;8.894;2024-01-16T10:08:31;5.67;;;4.10;;
7807;SDS011;3949;49.254;8.894;2024-01-16T10:10:58;5.53;;;4.57;;
7807;SDS011;3949;49.254;8.894;2024-01-16T10:13:24;5.87;;;3.93;;
7807;SDS011;3949;49.254;8.894;2024-01-16T10:15:50;8.23;;;4.77;;
7807;SDS011;3949;49.254;8.894;2024-01-16T10:18:25;7.83;;;5.23;;
7807;SDS011;3949;49.254;8.894;2024-01-16T10:20:51;8.13;;;3.93;;
7807;SDS011;3949;49.254;8.894;2024-01-16T10:26:05;5.03;;;4.07;;
7807;SDS011;3949;49.254;8.894;2024-01-16T10:28:32;6.67;;;4.50;;
7807;SDS011;3949;49.254;8.894;2024-01-16T10:31:01;6.67;;;4.17;;
7807;SDS011;3949;49.254;8.894;2024-01-16T10:33:28;7.90;;;4.60;;
7807;SDS011;3949;49.254;8.894;2024-01-16T10:36:13;7.17;;;4.47;;
7807;SDS011;3949;49.254;8.894;2024-01-16T10:38:41;7.30;;;5.10;;
7807;SDS011;3949;49.254;8.894;2024-01-16T10:43:35;6.07;;;3.87;;
7807;SDS011;3949;49.254;8.894;2024-01-16T10:48:33;6.40;;;4.13;;
7807;SDS011;3949;49.254;8.894;2024-01-16T10:51:00;7.00;;;4.87;;
7807;SDS011;3949;49.254;8.894;2024-01-16T10:53:26;8.37;;;4.97;;
7807;SDS011;3949;49.254;8.894;2024-01-16T10:55:54;7.93;;;5.03;;
7807;SDS011;3949;49.254;8.894;2024-01-16T10:58:23;6.30;;;4.20;;
7807;SDS011;3949;49.254;8.894;2024-01-16T11:00:51;7.60;;;4.30;;
7807;SDS011;3949;49.254;8.894;2024-01-16T11:05:59;9.83;;;6.87;;
7807;SDS011;3949;49.254;8.894;2024-01-16T11:08:26;7.53;;;4.70;;
7807;SDS011;3949;49.254;8.894;2024-01-16T11:10:56;13.23;;;7.80;;
7807;SDS011;3949;49.254;8.894;2024-01-16T11:13:23;8.50;;;5.80;;
7807;SDS011;3949;49.254;8.894;2024-01-16T11:15:49;23.53;;;14.30;;
7807;SDS011;3949;49.254;8.894;2024-01-16T11:18:15;12.63;;;8.00;;
7807;SDS011;3949;49.254;8.894;2024-01-16T11:20:42;5.70;;;4.50;;
7807;SDS011;3949;49.254;8.894;2024-01-16T11:23:10;6.70;;;4.97;;
7807;SDS011;3949;49.254;8.894;2024-01-16T11:25:37;7.93;;;5.10;;
7807;SDS011;3949;49.254;8.894;2024-01-16T11:28:11;7.20;;;4.53;;
7807;SDS011;3949;49.254;8.894;2024-01-16T11:30:37;11.20;;;6.90;;
7807;SDS011;3949;49.254;8.894;2024-01-16T11:33:03;16.90;;;11.10;;
7807;SDS011;3949;49.254;8.894;2024-01-16T11:35:35;9.03;;;5.10;;
7807;SDS011;3949;49.254;8.894;2024-01-16T11:38:08;5.33;;;4.30;;
7807;SDS011;3949;49.254;8.894;2024-01-16T11:40:35;6.97;;;5.10;;
7807;SDS011;3949;49.254;8.894;2024-01-16T11:45:49;8.20;;;6.00;;
7807;SDS011;3949;49.254;8.894;2024-01-16T11:48:18;8.63;;;6.27;;
7807;SDS011;3949;49.254;8.894;2024-01-16T11:50:44;8.50;;;5.23;;
7807;SDS011;3949;49.254;8.894;2024-01-16T11:53:11;7.43;;;4.93;;
7807;SDS011;3949;49.254;8.894;2024-01-16T12:00:47;8.87;;;6.57;;
7807;SDS011;3949;49.254;8.894;2024-01-16T12:03:16;6.77;;;5.87;;
7807;SDS011;3949;49.254;8.894;2024-01-16T12:05:43;9.40;;;5.80;;
7807;SDS011;3949;49.254;8.894;2024-01-16T12:08:09;8.50;;;5.63;;
7807;SDS011;3949;49.254;8.894;2024-01-16T12:10:45;7.10;;;5.43;;
7807;SDS011;3949;49.254;8.894;2024-01-16T12:13:14;6.60;;;5.20;;
7807;SDS011;3949;49.254;8.894;2024-01-16T12:15:41;7.03;;;4.50;;
7807;SDS011;3949;49.254;8.894;2024-01-16T12:18:07;6.37;;;4.37;;
7807;SDS011;3949;49.254;8.894;2024-01-16T12:20:34;5.83;;;4.00;;
7807;SDS011;3949;49.254;8.894;2024-01-16T12:25:27;7.23;;;5.87;;
7807;SDS011;3949;49.254;8.894;2024-01-16T12:28:00;6.83;;;5.00;;
7807;SDS011;3949;49.254;8.894;2024-01-16T12:30:27;9.20;;;6.30;;
7807;SDS011;3949;49.254;8.894;2024-01-16T12:33:12;9.97;;;7.60;;
7807;SDS011;3949;49.254;8.894;2024-01-16T12:38:04;8.10;;;4.53;;
7807;SDS011;3949;49.254;8.894;2024-01-16T12:40:30;6.43;;;4.60;;
7807;SDS011;3949;49.254;8.894;2024-01-16T12:42:56;9.50;;;6.77;;
7807;SDS011;3949;49.254;8.894;2024-01-16T12:45:23;5.80;;;5.03;;
7807;SDS011;3949;49.254;8.894;2024-01-16T12:47:52;5.63;;;4.40;;
7807;SDS011;3949;49.254;8.894;2024-01-16T12:50:19;5.20;;;4.50;;
7807;SDS011;3949;49.254;8.894;2024-01-16T12:52:46;5.03;;;4.53;;
7807;SDS011;3949;49.254;8.894;2024-01-16T12:55:13;5.60;;;4.63;;
7807;SDS011;3949;49.254;8.894;2024-01-16T12:57:40;6.83;;;5.20;;
7807;SDS011;3949;49.254;8.894;2024-01-16T13:00:25;5.63;;;4.67;;
7807;SDS011;3949;49.254;8.894;2024-01-16T13:02:51;5.20;;;4.67;;
7807;SDS011;3949;49.254;8.894;2024-01-16T13:05:18;5.33;;;3.47;;
7807;SDS011;3949;49.254;8.894;2024-01-16T13:07:44;6.53;;;3.80;;
7807;SDS011;3949;49.254;8.894;2024-01-16T13:10:12;4.50;;;3.60;;
7807;SDS011;3949;49.254;8.894;2024-01-16T13:12:41;6.43;;;3.80;;
7807;SDS011;3949;49.254;8.894;2024-01-16T13:15:07;4.30;;;3.60;;
7807;SDS011;3949;49.254;8.894;2024-01-16T13:17:33;5.10;;;3.90;;
7807;SDS011;3949;49.254;8.894;2024-01-16T13:20:01;5.97;;;3.57;;
7807;SDS011;3949;49.254;8.894;2024-01-16T13:22:28;6.17;;;3.60;;
7807;SDS011;3949;49.254;8.894;2024-01-16T13:24:54;5.03;;;4.20;;
7807;SDS011;3949;49.254;8.894;2024-01-16T13:27:22;6.17;;;3.80;;
7807;SDS011;3949;49.254;8.894;2024-01-16T13:29:48;3.87;;;3.13;;
7807;SDS011;3949;49.254;8.894;2024-01-16T13:32:14;5.60;;;3.90;;
7807;SDS011;3949;49.254;8.894;2024-01-16T13:34:40;4.60;;;3.67;;
7807;SDS011;3949;49.254;8.894;2024-01-16T13:37:11;6.27;;;4.17;;
7807;SDS011;3949;49.254;8.894;2024-01-16T13:39:41;5.53;;;3.90;;
7807;SDS011;3949;49.254;8.894;2024-01-16T13:42:07;5.77;;;3.60;;
7807;SDS011;3949;49.254;8.894;2024-01-16T13:44:32;4.23;;;3.60;;
7807;SDS011;3949;49.254;8.894;2024-01-16T13:46:58;7.07;;;5.23;;
7807;SDS011;3949;49.254;8.894;2024-01-16T13:49:24;9.53;;;6.07;;
7807;SDS011;3949;49.254;8.894;2024-01-16T13:51:50;5.17;;;3.70;;
7807;SDS011;3949;49.254;8.894;2024-01-16T13:54:16;6.33;;;3.83;;
7807;SDS011;3949;49.254;8.894;2024-01-16T13:56:43;6.97;;;4.70;;
7807;SDS011;3949;49.254;8.894;2024-01-16T13:59:09;10.43;;;6.77;;
7807;SDS011;3949;49.254;8.894;2024-01-16T14:01:35;6.77;;;5.00;;
7807;SDS011;3949;49.254;8.894;2024-01-16T14:04:01;5.93;;;3.90;;
7807;SDS011;3949;49.254;8.894;2024-01-16T14:06:27;5.47;;;4.27;;
7807;SDS011;3949;49.254;8.894;2024-01-16T14:08:53;4.80;;;3.67;;
7807;SDS011;3949;49.254;8.894;2024-01-16T14:11:19;6.37;;;4.53;;
7807;SDS011;3949;49.254;8.894;2024-01-16T14:13:45;8.37;;;4.30;;
7807;SDS011;3949;49.254;8.894;2024-01-16T14:16:11;8.17;;;4.47;;
7807;SDS011;3949;49.254;8.894;2024-01-16T14:18:37;6.23;;;4.80;;
7807;SDS011;3949;49.254;8.894;2024-01-16T14:21:03;7.13;;;5.43;;
7807;SDS011;3949;49.254;8.894;2024-01-16T14:23:29;8.50;;;5.20;;
7807;SDS011;3949;49.254;8.894;2024-01-16T14:25:55;9.93;;;6.90;;
7807;SDS011;3949;49.254;8.894;2024-01-16T14:28:21;6.10;;;4.47;;
7807;SDS011;3949;49.254;8.894;2024-01-16T14:30:51;5.73;;;4.23;;
7807;SDS011;3949;49.254;8.894;2024-01-16T14:33:17;5.37;;;4.60;;
7807;SDS011;3949;49.254;8.894;2024-01-16T14:35:43;11.87;;;8.60;;
7807;SDS011;3949;49.254;8.894;2024-01-16T14:38:09;4.87;;;4.27;;
7807;SDS011;3949;49.254;8.894;2024-01-16T14:40:35;5.87;;;4.27;;
7807;SDS011;3949;49.254;8.894;2024-01-16T14:43:01;8.60;;;4.77;;
7807;SDS011;3949;49.254;8.894;2024-01-16T14:45:29;4.43;;;3.80;;
7807;SDS011;3949;49.254;8.894;2024-01-16T14:47:57;8.67;;;5.57;;
7807;SDS011;3949;49.254;8.894;2024-01-16T14:50:24;7.80;;;4.63;;
7807;SDS011;3949;49.254;8.894;2024-01-16T14:52:50;5.77;;;3.93;;
7807;SDS011;3949;49.254;8.894;2024-01-16T14:55:17;4.87;;;3.93;;
7807;SDS011;3949;49.254;8.894;2024-01-16T14:57:45;7.33;;;4.57;;
7807;SDS011;3949;49.254;8.894;2024-01-16T15:00:15;5.43;;;4.27;;
7807;SDS011;3949;49.254;8.894;2024-01-16T15:02:48;9.23;;;5.77;;
7807;SDS011;3949;49.254;8.894;2024-01-16T15:05:14;5.63;;;4.20;;
7807;SDS011;3949;49.254;8.894;2024-01-16T15:07:40;4.63;;;3.73;;
7807;SDS011;3949;49.254;8.894;2024-01-16T15:10:08;8.80;;;6.40;;
7807;SDS011;3949;49.254;8.894;2024-01-16T15:12:34;8.00;;;5.97;;
7807;SDS011;3949;49.254;8.894;2024-01-16T15:15:00;6.87;;;5.03;;
7807;SDS011;3949;49.254;8.894;2024-01-16T15:17:30;8.33;;;6.30;;
7807;SDS011;3949;49.254;8.894;2024-01-16T15:19:56;12.93;;;8.70;;
7807;SDS011;3949;49.254;8.894;2024-01-16T15:22:22;8.87;;;5.67;;
7807;SDS011;3949;49.254;8.894;2024-01-16T15:24:48;6.60;;;4.60;;
7807;SDS011;3949;49.254;8.894;2024-01-16T15:27:14;6.33;;;4.67;;
7807;SDS011;3949;49.254;8.894;2024-01-16T15:29:41;8.37;;;5.23;;
7807;SDS011;3949;49.254;8.894;2024-01-16T15:32:07;12.47;;;7.63;;
7807;SDS011;3949;49.254;8.894;2024-01-16T15:34:33;9.33;;;5.33;;